Terminal Aerodrome Forecast
Issued by NWS

Home | Current Version | Previous Version | Text Only | Print | Product List | Glossary On
Versions: 1 2 3 4 5 6 7 8 9 10 11 12 13 14 15
364
FTUS44 KLZK 091136
TAFBPK
TAF
KBPK 091136Z 0912/1012 32008G16KT P6SM FEW050
     FM091500 31015G25KT P6SM SKC
     FM100000 32006KT P6SM SKC
     FM100400 32003KT P6SM SKC=

USA.gov is the U.S. government's official web portal to all federal, state and local government web resources and services.